createdAt,value
2022-12-13T00:01:22.992Z,-6.70
2022-12-13T00:03:52.164Z,-6.70
2022-12-13T00:06:19.019Z,-6.70
2022-12-13T00:08:45.992Z,-6.70
2022-12-13T00:11:13.893Z,-6.70
2022-12-13T00:13:42.112Z,-6.80
2022-12-13T00:16:12.485Z,-6.80
2022-12-13T00:18:39.582Z,-6.80
2022-12-13T00:21:08.113Z,-6.80
2022-12-13T00:23:35.739Z,-6.80
2022-12-13T00:26:17.404Z,-6.80
2022-12-13T00:28:44.571Z,-6.80
2022-12-13T00:31:51.815Z,-6.80
2022-12-13T00:33:59.129Z,-6.90
2022-12-13T00:36:26.037Z,-7.00
2022-12-13T00:39:00.431Z,-7.00
2022-12-13T00:41:33.560Z,-6.90
2022-12-13T00:44:01.065Z,-6.90
2022-12-13T00:46:28.529Z,-6.90
2022-12-13T00:48:57.801Z,-6.90
2022-12-13T00:51:26.674Z,-6.90
2022-12-13T00:53:53.521Z,-6.90
2022-12-13T00:56:23.380Z,-6.90
2022-12-13T00:58:52.263Z,-7.00
2022-12-13T01:01:25.270Z,-7.00
2022-12-13T01:03:54.594Z,-7.00
2022-12-13T01:06:35.139Z,-7.00
2022-12-13T01:09:02.567Z,-7.00
2022-12-13T01:11:29.235Z,-7.10
2022-12-13T01:13:55.902Z,-7.10
2022-12-13T01:16:22.518Z,-7.20
2022-12-13T01:18:49.226Z,-7.20
2022-12-13T01:21:18.932Z,-7.20
2022-12-13T01:23:45.873Z,-7.30
2022-12-13T01:26:15.867Z,-7.30
2022-12-13T01:28:43.326Z,-7.30
2022-12-13T01:31:12.852Z,-7.30
2022-12-13T01:33:40.277Z,-7.40
2022-12-13T01:36:10.068Z,-7.40
2022-12-13T01:38:37.998Z,-7.40
2022-12-13T01:41:08.895Z,-7.40
2022-12-13T01:43:44.751Z,-7.50
2022-12-13T01:46:12.292Z,-7.50
2022-12-13T01:48:50.313Z,-7.50
2022-12-13T01:51:19.728Z,-7.50
2022-12-13T01:53:49.081Z,-7.50
2022-12-13T01:56:26.100Z,-7.50
2022-12-13T01:58:54.966Z,-7.50
2022-12-13T02:01:22.245Z,-7.50
2022-12-13T02:03:48.891Z,-7.50
2022-12-13T02:06:39.765Z,-7.60
2022-12-13T02:09:07.825Z,-7.60
2022-12-13T02:11:38.001Z,-7.50
2022-12-13T02:14:05.516Z,-7.50
2022-12-13T02:16:37.840Z,-7.50
2022-12-13T02:19:30.931Z,-7.50
2022-12-13T02:22:05.693Z,-7.60
2022-12-13T02:24:51.057Z,-7.60
2022-12-13T02:28:00.829Z,-7.60
2022-12-13T02:30:37.163Z,-7.60
2022-12-13T02:33:28.808Z,-7.60
2022-12-13T02:36:08.702Z,-7.70
2022-12-13T02:38:53.485Z,-7.70
2022-12-13T02:41:49.988Z,-7.70
2022-12-13T02:44:41.935Z,-7.70
2022-12-13T02:47:21.715Z,-7.70
2022-12-13T02:49:52.304Z,-7.70
2022-12-13T02:52:22.903Z,-7.60
2022-12-13T02:54:49.730Z,-7.60
2022-12-13T02:57:37.137Z,-7.60
2022-12-13T03:00:21.263Z,-7.60
2022-12-13T03:03:12.533Z,-7.60
2022-12-13T03:06:09.721Z,-7.60
2022-12-13T03:08:42.351Z,-7.50
2022-12-13T03:11:13.591Z,-7.50
2022-12-13T03:14:04.940Z,-7.60
2022-12-13T03:16:36.537Z,-7.60
2022-12-13T03:19:06.725Z,-7.60
2022-12-13T03:21:47.249Z,-7.60
2022-12-13T03:24:17.256Z,-7.60
2022-12-13T03:26:44.082Z,-7.50
2022-12-13T03:29:10.744Z,-7.60
2022-12-13T03:31:37.388Z,-7.60
2022-12-13T03:34:03.999Z,-7.60
2022-12-13T03:36:30.645Z,-7.60
2022-12-13T03:38:57.333Z,-7.60
2022-12-13T03:41:31.438Z,-7.60
2022-12-13T03:44:04.848Z,-7.60
2022-12-13T03:46:32.160Z,-7.60
2022-12-13T03:48:58.802Z,-7.60
2022-12-13T03:51:25.550Z,-7.70
2022-12-13T03:53:52.118Z,-7.70
2022-12-13T03:56:18.753Z,-7.70
2022-12-13T03:58:45.445Z,-7.70
2022-12-13T04:01:15.366Z,-7.80
2022-12-13T04:03:43.952Z,-7.80
2022-12-13T04:06:11.224Z,-7.80
2022-12-13T04:08:38.799Z,-7.80
2022-12-13T04:11:24.529Z,-7.80
2022-12-13T04:13:52.335Z,-7.80
2022-12-13T04:16:19.430Z,-7.90
2022-12-13T04:18:46.021Z,-7.90
2022-12-13T04:21:12.659Z,-7.90
2022-12-13T04:23:39.292Z,-8.00
2022-12-13T04:26:06.235Z,-8.00
2022-12-13T04:28:32.884Z,-8.00
2022-12-13T04:30:59.458Z,-8.00
2022-12-13T04:33:26.084Z,-8.00
2022-12-13T04:35:52.766Z,-8.00
2022-12-13T04:38:19.995Z,-7.90
2022-12-13T04:40:46.683Z,-7.90
2022-12-13T04:43:13.287Z,-7.90
2022-12-13T04:45:39.899Z,-7.90
2022-12-13T04:48:06.634Z,-7.90
2022-12-13T04:50:33.663Z,-8.00
2022-12-13T04:53:00.387Z,-7.90
2022-12-13T04:55:27.041Z,-8.00
2022-12-13T04:57:53.718Z,-8.00
2022-12-13T05:00:22.298Z,-8.00
2022-12-13T05:02:49.110Z,-8.10
2022-12-13T05:05:16.008Z,-8.10
2022-12-13T05:07:43.157Z,-8.10
2022-12-13T05:10:11.258Z,-8.10
2022-12-13T05:12:37.891Z,-8.10
2022-12-13T05:15:05.352Z,-8.20
2022-12-13T05:17:32.028Z,-8.10
2022-12-13T05:19:58.608Z,-8.10
2022-12-13T05:22:25.440Z,-8.20
2022-12-13T05:24:52.071Z,-8.10
2022-12-13T05:27:23.697Z,-8.10
2022-12-13T05:30:02.375Z,-8.20
2022-12-13T05:32:43.142Z,-8.20
2022-12-13T05:35:22.590Z,-8.30
2022-12-13T05:37:55.054Z,-8.30
2022-12-13T05:40:23.127Z,-8.30
2022-12-13T05:42:50.118Z,-8.30
2022-12-13T05:45:18.477Z,-8.30
2022-12-13T05:47:45.963Z,-8.20
2022-12-13T05:50:14.046Z,-8.20
2022-12-13T05:52:40.679Z,-8.20
2022-12-13T05:55:07.620Z,-8.20
2022-12-13T05:57:34.319Z,-8.20
2022-12-13T06:00:01.016Z,-8.20
2022-12-13T06:02:27.878Z,-8.20
2022-12-13T06:04:54.733Z,-8.30
2022-12-13T06:07:21.281Z,-8.20
2022-12-13T06:09:47.846Z,-8.20
2022-12-13T06:12:30.967Z,-8.20
2022-12-13T06:15:01.109Z,-8.20
2022-12-13T06:17:45.413Z,-8.10
2022-12-13T06:20:24.237Z,-8.20
2022-12-13T06:22:51.941Z,-7.90
2022-12-13T06:25:31.064Z,-7.90
2022-12-13T06:28:00.753Z,-8.00
2022-12-13T06:30:28.502Z,-7.80
2022-12-13T06:32:55.255Z,-7.70
2022-12-13T06:35:28.335Z,-7.20
2022-12-13T06:37:55.828Z,-7.60
2022-12-13T06:40:27.819Z,-7.80
2022-12-13T06:42:54.433Z,-7.90
2022-12-13T06:45:21.019Z,-8.00
2022-12-13T06:47:47.630Z,-7.90
2022-12-13T06:50:15.021Z,-8.10
2022-12-13T06:52:41.590Z,-8.20
2022-12-13T06:55:08.686Z,-8.30
2022-12-13T06:57:35.358Z,-8.40
2022-12-13T07:00:03.502Z,-8.30
2022-12-13T07:02:30.407Z,-8.30
2022-12-13T07:04:57.278Z,-8.30
2022-12-13T07:07:25.828Z,-8.20
2022-12-13T07:09:52.873Z,-8.30
2022-12-13T07:12:20.973Z,-8.30
2022-12-13T07:14:47.769Z,-8.20
2022-12-13T07:17:33.924Z,-8.20
2022-12-13T07:20:07.566Z,-8.20
2022-12-13T07:22:36.869Z,-8.20
2022-12-13T07:25:05.998Z,-8.30
2022-12-13T07:27:34.373Z,-8.30
2022-12-13T07:30:01.159Z,-8.30
2022-12-13T07:32:28.196Z,-8.30
2022-12-13T07:34:54.774Z,-8.40
2022-12-13T07:37:29.573Z,-8.40
2022-12-13T07:40:03.436Z,-8.40
2022-12-13T07:42:31.238Z,-8.40
2022-12-13T07:44:57.887Z,-8.50
2022-12-13T07:47:29.811Z,-8.40
2022-12-13T07:49:56.503Z,-8.40
2022-12-13T07:52:24.332Z,-8.40
2022-12-13T07:54:50.967Z,-8.40
2022-12-13T07:57:17.615Z,-8.40
2022-12-13T07:59:44.217Z,-8.40
2022-12-13T08:02:13.306Z,-8.40
2022-12-13T08:04:41.851Z,-8.40
2022-12-13T08:07:09.744Z,-8.30
2022-12-13T08:09:36.818Z,-8.30
2022-12-13T08:12:05.178Z,-8.20
2022-12-13T08:14:32.027Z,-8.20
2022-12-13T08:16:58.702Z,-8.20
2022-12-13T08:19:25.331Z,-8.10
2022-12-13T08:21:58.272Z,-8.10
2022-12-13T08:24:30.274Z,-8.10
2022-12-13T08:27:02.006Z,-8.00
2022-12-13T08:29:34.063Z,-8.00
2022-12-13T08:32:10.456Z,-8.00
2022-12-13T08:34:37.658Z,-8.00
2022-12-13T08:37:05.054Z,-8.00
2022-12-13T08:39:36.695Z,-7.90
2022-12-13T08:42:15.214Z,-7.80
2022-12-13T08:44:48.382Z,-7.70
2022-12-13T08:47:22.982Z,-7.70
2022-12-13T08:49:55.779Z,-7.70
2022-12-13T08:52:29.502Z,-7.60
2022-12-13T08:54:56.207Z,-7.60
2022-12-13T08:57:22.804Z,-7.50
2022-12-13T08:59:49.435Z,-7.40
2022-12-13T09:02:16.657Z,-7.40
2022-12-13T09:04:43.658Z,-7.30
2022-12-13T09:07:10.242Z,-7.20
2022-12-13T09:09:37.420Z,-7.10
2022-12-13T09:12:10.659Z,-7.00
2022-12-13T09:14:45.370Z,-7.00
2022-12-13T09:17:24.138Z,-6.90
2022-12-13T09:19:51.248Z,-6.80
2022-12-13T09:22:32.812Z,-6.70
2022-12-13T09:25:02.857Z,-6.70
2022-12-13T09:27:30.903Z,-6.60
2022-12-13T09:30:08.042Z,-6.50
2022-12-13T09:32:34.660Z,-6.40
2022-12-13T09:35:01.257Z,-6.40
2022-12-13T09:37:29.624Z,-6.30
2022-12-13T09:39:56.231Z,-6.40
2022-12-13T09:42:30.458Z,-6.40
2022-12-13T09:45:06.101Z,-6.40
2022-12-13T09:47:49.739Z,-6.30
2022-12-13T09:50:24.933Z,-6.30
2022-12-13T09:52:52.422Z,-6.30
2022-12-13T09:55:38.586Z,-6.30
2022-12-13T09:58:22.399Z,-6.20
2022-12-13T10:00:53.186Z,-6.20
2022-12-13T10:03:22.495Z,-6.20
2022-12-13T10:05:58.972Z,-6.20
2022-12-13T10:08:40.489Z,-6.20
2022-12-13T10:11:07.080Z,-6.20
2022-12-13T10:13:55.038Z,-6.10
2022-12-13T10:16:37.639Z,-6.00
2022-12-13T10:19:29.268Z,-6.00
2022-12-13T10:22:01.212Z,-5.90
2022-12-13T10:24:46.725Z,-5.80
2022-12-13T10:27:16.832Z,-5.80
2022-12-13T10:30:07.597Z,-5.70
2022-12-13T10:33:03.686Z,-5.70
2022-12-13T10:35:41.501Z,-5.60
2022-12-13T10:38:08.214Z,-5.60
2022-12-13T10:40:37.502Z,-5.50
2022-12-13T10:43:26.265Z,-5.50
2022-12-13T10:45:56.615Z,-5.50
2022-12-13T10:48:45.334Z,-5.50
2022-12-13T10:51:18.661Z,-5.30
2022-12-13T10:53:58.246Z,-5.10
2022-12-13T10:56:36.316Z,-5.10
2022-12-13T10:59:25.532Z,-5.10
2022-12-13T11:01:52.622Z,-5.00
2022-12-13T11:04:29.755Z,-5.10
2022-12-13T11:06:59.663Z,-5.00
2022-12-13T11:09:38.893Z,-5.00
2022-12-13T11:12:14.474Z,-4.90
2022-12-13T11:15:08.926Z,-4.80
2022-12-13T11:17:45.546Z,-4.80
2022-12-13T11:20:29.997Z,-4.70
2022-12-13T11:23:19.506Z,-4.60
2022-12-13T11:25:46.317Z,-4.60
2022-12-13T11:28:50.485Z,-4.50
2022-12-13T11:31:55.867Z,-4.60
2022-12-13T11:34:40.705Z,-4.50
2022-12-13T11:37:49.243Z,-4.40
2022-12-13T11:40:32.208Z,-4.40
2022-12-13T11:43:12.032Z,-4.40
2022-12-13T11:45:54.709Z,-4.40
2022-12-13T11:48:39.773Z,-4.20
2022-12-13T11:51:09.134Z,-4.00
2022-12-13T11:53:49.704Z,-3.90
2022-12-13T11:56:25.785Z,-3.80
2022-12-13T11:59:27.499Z,-3.90
2022-12-13T12:02:18.116Z,-3.50
2022-12-13T12:04:53.608Z,-3.50
2022-12-13T12:08:12.780Z,-3.60
2022-12-13T12:10:49.398Z,-3.50
2022-12-13T12:13:24.861Z,-3.40
2022-12-13T12:16:18.078Z,-3.30
2022-12-13T12:18:44.813Z,-3.00
2022-12-13T12:21:20.328Z,-3.00
2022-12-13T12:24:10.159Z,-2.90
2022-12-13T12:27:11.115Z,-3.00
2022-12-13T12:29:50.631Z,-2.50
2022-12-13T12:32:42.588Z,-1.80
2022-12-13T12:35:17.122Z,-1.60
2022-12-13T12:37:55.314Z,-1.30
2022-12-13T12:40:52.219Z,-1.50
2022-12-13T12:43:21.848Z,-1.50
2022-12-13T12:46:08.390Z,-1.30
2022-12-13T12:49:06.286Z,-1.50
2022-12-13T12:51:38.852Z,-1.40
2022-12-13T12:54:18.178Z,-1.60
2022-12-13T12:56:59.394Z,-1.70
2022-12-13T12:59:40.039Z,-1.70
2022-12-13T13:02:28.820Z,-1.60
2022-12-13T13:05:02.961Z,-1.80
2022-12-13T13:07:39.600Z,-1.90
2022-12-13T13:10:16.456Z,-1.70
2022-12-13T13:12:53.411Z,-1.70
2022-12-13T13:15:39.397Z,-1.90
2022-12-13T13:18:45.732Z,-2.50
2022-12-13T13:21:34.704Z,-2.20
2022-12-13T13:24:01.306Z,-2.30
2022-12-13T13:26:37.975Z,-2.40
2022-12-13T13:29:27.271Z,-2.50
2022-12-13T13:32:06.923Z,-2.50
2022-12-13T13:34:40.636Z,-2.50
2022-12-13T13:37:27.523Z,-2.40
2022-12-13T13:40:08.395Z,-2.30
2022-12-13T13:42:55.078Z,-2.10
2022-12-13T13:45:27.446Z,-1.80
2022-12-13T13:48:14.509Z,-1.70
2022-12-13T13:51:15.759Z,-1.70
2022-12-13T13:54:20.793Z,-1.80
2022-12-13T13:57:12.135Z,-2.00
2022-12-13T14:00:17.190Z,-2.60
2022-12-13T14:03:35.253Z,-3.00
2022-12-13T14:06:20.870Z,-3.30
2022-12-13T14:09:04.498Z,-3.30
2022-12-13T14:11:43.153Z,-3.50
2022-12-13T14:14:30.958Z,-3.50
2022-12-13T14:17:46.520Z,-3.60
2022-12-13T14:20:31.487Z,-3.80
2022-12-13T14:23:03.909Z,-3.90
2022-12-13T14:25:40.259Z,-4.00
2022-12-13T14:28:52.971Z,-4.10
2022-12-13T14:31:31.301Z,-4.20
2022-12-13T14:34:00.593Z,-4.30
2022-12-13T14:36:32.144Z,-4.40
2022-12-13T14:39:24.663Z,-4.60
2022-12-13T14:41:57.023Z,-4.70
2022-12-13T14:44:28.167Z,-4.80
2022-12-13T14:47:02.988Z,-4.90
2022-12-13T14:49:32.500Z,-5.00
2022-12-13T14:52:27.571Z,-5.10
2022-12-13T14:55:04.633Z,-5.10
2022-12-13T14:57:33.120Z,-5.10
2022-12-13T15:00:01.797Z,-5.20
2022-12-13T15:02:32.793Z,-5.20
2022-12-13T15:05:01.681Z,-5.20
2022-12-13T15:07:41.568Z,-5.30
2022-12-13T15:10:40.071Z,-5.30
2022-12-13T15:13:07.144Z,-5.30
2022-12-13T15:15:37.855Z,-5.40
2022-12-13T15:18:20.445Z,-5.40
2022-12-13T15:20:50.115Z,-5.50
2022-12-13T15:23:22.838Z,-5.50
2022-12-13T15:26:28.478Z,-5.60
2022-12-13T15:29:09.967Z,-5.60
2022-12-13T15:31:38.352Z,-5.60
2022-12-13T15:34:28.518Z,-5.70
2022-12-13T15:37:28.453Z,-5.70
2022-12-13T15:39:59.892Z,-5.70
2022-12-13T15:42:32.899Z,-5.70
2022-12-13T15:45:06.014Z,-5.70
2022-12-13T15:47:33.480Z,-5.70
2022-12-13T15:50:02.735Z,-5.70
2022-12-13T15:52:32.801Z,-5.70
2022-12-13T15:55:07.655Z,-5.70
2022-12-13T15:57:36.798Z,-5.80
2022-12-13T16:00:16.810Z,-5.80
2022-12-13T16:02:53.758Z,-5.80
2022-12-13T16:05:38.620Z,-5.70
2022-12-13T16:08:13.892Z,-5.40
2022-12-13T16:10:47.136Z,-5.60
2022-12-13T16:13:26.352Z,-5.60
2022-12-13T16:16:00.278Z,-5.60
2022-12-13T16:18:44.902Z,-5.60
2022-12-13T16:21:11.700Z,-5.60
2022-12-13T16:23:38.345Z,-5.60
2022-12-13T16:26:09.037Z,-5.60
2022-12-13T16:28:36.294Z,-5.60
2022-12-13T16:31:23.787Z,-5.60
2022-12-13T16:33:50.510Z,-5.60
2022-12-13T16:36:17.875Z,-5.60
2022-12-13T16:38:44.515Z,-5.60
2022-12-13T16:41:11.274Z,-5.60
2022-12-13T16:43:44.705Z,-5.60
2022-12-13T16:47:15.999Z,-5.70
2022-12-13T16:48:58.848Z,-5.70
2022-12-13T16:51:25.540Z,-5.70
2022-12-13T16:53:52.130Z,-5.70
2022-12-13T16:56:21.677Z,-5.70
2022-12-13T16:58:50.566Z,-5.70
2022-12-13T17:01:20.255Z,-5.70
2022-12-13T17:03:47.493Z,-5.70
2022-12-13T17:06:16.706Z,-5.80
2022-12-13T17:08:43.324Z,-5.80
2022-12-13T17:11:14.681Z,-5.80
2022-12-13T17:13:44.635Z,-5.80
2022-12-13T17:16:11.388Z,-5.80
2022-12-13T17:18:41.798Z,-5.90
2022-12-13T17:21:09.513Z,-5.90
2022-12-13T17:23:36.453Z,-5.90
2022-12-13T17:26:07.512Z,-5.90
2022-12-13T17:28:34.364Z,-5.90
2022-12-13T17:31:13.283Z,-5.90
2022-12-13T17:33:40.851Z,-6.00
2022-12-13T17:36:10.071Z,-6.00
2022-12-13T17:38:37.540Z,-6.00
2022-12-13T17:41:04.382Z,-6.00
2022-12-13T17:43:34.939Z,-6.10
2022-12-13T17:46:08.291Z,-6.00
2022-12-13T17:48:40.219Z,-6.00
2022-12-13T17:51:08.710Z,-6.00
2022-12-13T17:53:35.938Z,-6.00
2022-12-13T17:56:05.758Z,-6.10
2022-12-13T17:58:32.512Z,-6.00
2022-12-13T18:00:59.670Z,-6.00
2022-12-13T18:03:26.751Z,-6.00
2022-12-13T18:05:59.857Z,-6.00
2022-12-13T18:08:27.502Z,-6.10
2022-12-13T18:11:30.758Z,-6.10
2022-12-13T18:13:46.306Z,-6.00
2022-12-13T18:16:15.467Z,-6.00
2022-12-13T18:18:42.703Z,-6.00
2022-12-13T18:21:21.741Z,-6.00
2022-12-13T18:23:54.962Z,-6.00
2022-12-13T18:26:23.144Z,-6.10
2022-12-13T18:28:49.755Z,-6.10
2022-12-13T18:31:22.663Z,-6.00
2022-12-13T18:33:50.516Z,-6.00
2022-12-13T18:36:17.945Z,-6.10
2022-12-13T18:38:44.604Z,-6.10
2022-12-13T18:41:20.128Z,-6.10
2022-12-13T18:43:47.528Z,-6.10
2022-12-13T18:46:15.632Z,-6.00
2022-12-13T18:48:42.355Z,-6.10
2022-12-13T18:51:10.314Z,-6.00
2022-12-13T18:53:38.222Z,-6.00
2022-12-13T18:56:18.308Z,-6.00
2022-12-13T18:58:47.971Z,-6.00
2022-12-13T19:01:15.886Z,-6.00
2022-12-13T19:03:44.953Z,-6.00
2022-12-13T19:06:19.453Z,-6.00
2022-12-13T19:08:51.450Z,-6.00
2022-12-13T19:11:19.150Z,-6.00
2022-12-13T19:13:46.325Z,-6.00
2022-12-13T19:16:15.903Z,-6.00
2022-12-13T19:18:42.693Z,-6.00
2022-12-13T19:21:12.974Z,-6.00
2022-12-13T19:23:40.976Z,-6.00
2022-12-13T19:26:09.659Z,-6.00
2022-12-13T19:28:36.566Z,-6.00
2022-12-13T19:31:04.838Z,-6.00
2022-12-13T19:33:31.784Z,-6.10
2022-12-13T19:35:58.676Z,-6.00
2022-12-13T19:38:25.317Z,-6.00
2022-12-13T19:40:51.962Z,-6.00
2022-12-13T19:43:20.657Z,-6.00
2022-12-13T19:45:47.765Z,-6.00
2022-12-13T19:48:14.745Z,-6.00
2022-12-13T19:50:42.091Z,-5.90
2022-12-13T19:53:08.880Z,-5.90
2022-12-13T19:55:35.529Z,-5.90
2022-12-13T19:58:02.440Z,-5.90
2022-12-13T20:00:29.119Z,-5.90
2022-12-13T20:02:56.204Z,-5.80
2022-12-13T20:05:22.862Z,-5.80
2022-12-13T20:07:51.042Z,-5.80
2022-12-13T20:10:17.702Z,-5.80
2022-12-13T20:12:44.291Z,-5.80
2022-12-13T20:15:11.044Z,-5.80
2022-12-13T20:17:37.676Z,-5.80
2022-12-13T20:20:05.234Z,-5.80
2022-12-13T20:22:33.295Z,-5.80
2022-12-13T20:25:00.073Z,-5.80
2022-12-13T20:27:26.972Z,-5.80
2022-12-13T20:29:53.760Z,-5.80
2022-12-13T20:32:21.274Z,-5.90
2022-12-13T20:34:53.183Z,-5.90
2022-12-13T20:37:22.082Z,-5.90
2022-12-13T20:39:49.111Z,-5.90
2022-12-13T20:42:15.759Z,-5.90
2022-12-13T20:44:42.393Z,-5.90
2022-12-13T20:47:09.190Z,-5.90
2022-12-13T20:49:35.809Z,-5.90
2022-12-13T20:52:02.758Z,-6.00
2022-12-13T20:54:29.421Z,-5.90
2022-12-13T20:56:58.088Z,-5.90
2022-12-13T20:59:24.694Z,-6.00
2022-12-13T21:01:51.342Z,-6.00
2022-12-13T21:04:18.072Z,-5.90
2022-12-13T21:06:44.668Z,-5.90
2022-12-13T21:09:11.833Z,-5.90
2022-12-13T21:11:42.712Z,-5.90
2022-12-13T21:14:27.314Z,-5.90
2022-12-13T21:16:55.288Z,-5.90
2022-12-13T21:19:24.439Z,-5.90
2022-12-13T21:21:51.855Z,-5.90
2022-12-13T21:24:19.974Z,-5.90
2022-12-13T21:26:47.400Z,-5.90
2022-12-13T21:29:16.044Z,-5.90
2022-12-13T21:31:44.742Z,-5.80
2022-12-13T21:34:16.904Z,-5.80
2022-12-13T21:36:45.738Z,-5.90
2022-12-13T21:39:14.104Z,-5.90
2022-12-13T21:41:41.798Z,-5.80
2022-12-13T21:44:10.924Z,-5.80
2022-12-13T21:49:25.182Z,-5.70
2022-12-13T21:51:51.789Z,-5.80
2022-12-13T21:54:18.648Z,-5.70
2022-12-13T21:57:04.245Z,-5.70
2022-12-13T21:59:31.658Z,-5.70
2022-12-13T22:02:11.955Z,-5.70
2022-12-13T22:04:41.016Z,-5.70
2022-12-13T22:07:08.739Z,-5.60
2022-12-13T22:09:36.418Z,-5.60
2022-12-13T22:12:16.802Z,-5.60
2022-12-13T22:14:43.522Z,-5.60
2022-12-13T22:17:10.216Z,-5.60
2022-12-13T22:19:36.834Z,-5.60
2022-12-13T22:22:03.510Z,-5.50
2022-12-13T22:24:30.113Z,-5.50
2022-12-13T22:26:56.738Z,-5.50
2022-12-13T22:29:23.309Z,-5.50
2022-12-13T22:31:49.927Z,-5.20
2022-12-13T22:34:16.827Z,-5.30
2022-12-13T22:36:43.448Z,-5.40
2022-12-13T22:39:18.173Z,-5.40
2022-12-13T22:41:45.842Z,-5.40
2022-12-13T22:44:13.928Z,-5.40
2022-12-13T22:46:41.061Z,-5.50
2022-12-13T22:49:08.327Z,-5.50
2022-12-13T22:51:35.403Z,-5.50
2022-12-13T22:54:02.281Z,-5.50
2022-12-13T22:56:28.949Z,-5.50
2022-12-13T22:58:57.451Z,-5.50
2022-12-13T23:01:26.771Z,-5.50
2022-12-13T23:03:53.589Z,-5.40
2022-12-13T23:06:23.346Z,-5.40
2022-12-13T23:08:52.717Z,-5.50
2022-12-13T23:11:39.098Z,-5.50
2022-12-13T23:14:08.855Z,-5.50
2022-12-13T23:16:36.699Z,-5.50
2022-12-13T23:19:39.160Z,-5.50
2022-12-13T23:21:52.677Z,-5.50
2022-12-13T23:24:20.093Z,-5.50
2022-12-13T23:26:46.919Z,-5.40
2022-12-13T23:29:13.580Z,-5.40
2022-12-13T23:31:42.347Z,-5.40
2022-12-13T23:34:15.339Z,-5.40
2022-12-13T23:36:42.047Z,-5.40
2022-12-13T23:39:09.213Z,-5.40
2022-12-13T23:41:36.231Z,-5.40
2022-12-13T23:44:04.237Z,-5.30
2022-12-13T23:46:34.694Z,-5.30
2022-12-13T23:49:04.436Z,-5.20
2022-12-13T23:51:31.246Z,-5.20
2022-12-13T23:53:57.822Z,-5.10
2022-12-13T23:56:24.712Z,-5.20
2022-12-13T23:58:51.408Z,-5.20
